sensor_id;sensor_type;location;lat;lon;timestamp;temperature;humidity
23435;DHT22;11890;45.380;11.028;2022-11-15T00:01:51;11.40;99.90
23435;DHT22;11890;45.380;11.028;2022-11-15T00:04:37;11.40;99.90
23435;DHT22;11890;45.380;11.028;2022-11-15T00:07:23;11.40;99.90
23435;DHT22;11890;45.380;11.028;2022-11-15T00:10:29;11.40;99.90
23435;DHT22;11890;45.380;11.028;2022-11-15T00:13:15;11.40;99.90
23435;DHT22;11890;45.380;11.028;2022-11-15T00:16:01;11.40;99.90
23435;DHT22;11890;45.380;11.028;2022-11-15T00:18:47;11.40;99.90
23435;DHT22;11890;45.380;11.028;2022-11-15T00:21:35;11.40;99.90
23435;DHT22;11890;45.380;11.028;2022-11-15T00:24:21;11.40;99.90
23435;DHT22;11890;45.380;11.028;2022-11-15T00:27:07;11.40;99.90
23435;DHT22;11890;45.380;11.028;2022-11-15T00:29:53;11.30;99.90
23435;DHT22;11890;45.380;11.028;2022-11-15T00:32:39;11.20;99.90
23435;DHT22;11890;45.380;11.028;2022-11-15T00:35:25;11.20;99.90
23435;DHT22;11890;45.380;11.028;2022-11-15T00:38:10;11.10;99.90
23435;DHT22;11890;45.380;11.028;2022-11-15T00:40:56;11.10;99.90
23435;DHT22;11890;45.380;11.028;2022-11-15T00:43:42;11.10;99.90
23435;DHT22;11890;45.380;11.028;2022-11-15T00:46:29;11.10;99.90
23435;DHT22;11890;45.380;11.028;2022-11-15T00:49:15;11.10;99.90
23435;DHT22;11890;45.380;11.028;2022-11-15T00:52:01;11.10;99.90
23435;DHT22;11890;45.380;11.028;2022-11-15T00:54:47;11.10;99.90
23435;DHT22;11890;45.380;11.028;2022-11-15T00:57:33;11.10;99.90
23435;DHT22;11890;45.380;11.028;2022-11-15T01:00:19;11.00;99.90
23435;DHT22;11890;45.380;11.028;2022-11-15T01:03:05;11.10;99.90
23435;DHT22;11890;45.380;11.028;2022-11-15T01:05:50;11.00;99.90
23435;DHT22;11890;45.380;11.028;2022-11-15T01:08:37;11.00;99.90
23435;DHT22;11890;45.380;11.028;2022-11-15T01:11:23;11.00;99.90
23435;DHT22;11890;45.380;11.028;2022-11-15T01:14:09;11.00;99.90
23435;DHT22;11890;45.380;11.028;2022-11-15T01:16:55;11.00;99.90
23435;DHT22;11890;45.380;11.028;2022-11-15T01:19:41;10.90;99.90
23435;DHT22;11890;45.380;11.028;2022-11-15T01:22:26;10.90;99.90
23435;DHT22;11890;45.380;11.028;2022-11-15T01:25:12;10.80;99.90
23435;DHT22;11890;45.380;11.028;2022-11-15T01:27:58;10.80;99.90
23435;DHT22;11890;45.380;11.028;2022-11-15T01:30:44;10.80;99.90
23435;DHT22;11890;45.380;11.028;2022-11-15T01:33:30;10.70;99.90
23435;DHT22;11890;45.380;11.028;2022-11-15T01:36:20;10.70;99.90
23435;DHT22;11890;45.380;11.028;2022-11-15T01:39:09;10.70;99.90
23435;DHT22;11890;45.380;11.028;2022-11-15T01:41:55;10.60;99.90
23435;DHT22;11890;45.380;11.028;2022-11-15T01:44:44;10.60;99.90
23435;DHT22;11890;45.380;11.028;2022-11-15T01:47:36;10.60;99.90
23435;DHT22;11890;45.380;11.028;2022-11-15T01:50:27;10.50;99.90
23435;DHT22;11890;45.380;11.028;2022-11-15T01:53:15;10.50;99.90
23435;DHT22;11890;45.380;11.028;2022-11-15T01:56:04;10.50;99.90
23435;DHT22;11890;45.380;11.028;2022-11-15T01:58:52;10.40;99.90
23435;DHT22;11890;45.380;11.028;2022-11-15T02:01:39;10.40;99.90
23435;DHT22;11890;45.380;11.028;2022-11-15T02:04:45;10.40;99.90
23435;DHT22;11890;45.380;11.028;2022-11-15T02:07:32;10.40;99.90
23435;DHT22;11890;45.380;11.028;2022-11-15T02:10:22;10.40;99.90
23435;DHT22;11890;45.380;11.028;2022-11-15T02:13:08;10.40;99.90
23435;DHT22;11890;45.380;11.028;2022-11-15T02:25:41;10.40;99.90
23435;DHT22;11890;45.380;11.028;2022-11-15T02:28:44;10.40;99.90
23435;DHT22;11890;45.380;11.028;2022-11-15T02:31:36;10.40;99.90
23435;DHT22;11890;45.380;11.028;2022-11-15T02:43:07;10.40;99.90
23435;DHT22;11890;45.380;11.028;2022-11-15T02:49:37;10.40;99.90
23435;DHT22;11890;45.380;11.028;2022-11-15T02:52:24;10.40;99.90
23435;DHT22;11890;45.380;11.028;2022-11-15T03:01:37;10.40;99.90
23435;DHT22;11890;45.380;11.028;2022-11-15T03:13:45;10.60;99.90
23435;DHT22;11890;45.380;11.028;2022-11-15T03:19:50;10.70;99.90
23435;DHT22;11890;45.380;11.028;2022-11-15T03:22:39;10.70;99.90
23435;DHT22;11890;45.380;11.028;2022-11-15T03:25:27;10.70;99.90
23435;DHT22;11890;45.380;11.028;2022-11-15T03:28:23;10.70;99.90
23435;DHT22;11890;45.380;11.028;2022-11-15T03:31:12;10.60;99.90
23435;DHT22;11890;45.380;11.028;2022-11-15T03:34:26;10.60;99.90
23435;DHT22;11890;45.380;11.028;2022-11-15T03:37:14;10.60;99.90
23435;DHT22;11890;45.380;11.028;2022-11-15T03:40:02;10.50;99.90
23435;DHT22;11890;45.380;11.028;2022-11-15T03:42:57;10.40;99.90
23435;DHT22;11890;45.380;11.028;2022-11-15T03:46:00;10.40;99.90
23435;DHT22;11890;45.380;11.028;2022-11-15T03:48:53;10.30;99.90
23435;DHT22;11890;45.380;11.028;2022-11-15T03:51:39;10.20;99.90
23435;DHT22;11890;45.380;11.028;2022-11-15T03:54:25;10.20;99.90
23435;DHT22;11890;45.380;11.028;2022-11-15T03:57:11;10.10;99.90
23435;DHT22;11890;45.380;11.028;2022-11-15T03:59:57;10.10;99.90
23435;DHT22;11890;45.380;11.028;2022-11-15T04:02:43;10.10;99.90
23435;DHT22;11890;45.380;11.028;2022-11-15T04:05:29;10.10;99.90
23435;DHT22;11890;45.380;11.028;2022-11-15T04:08:15;10.00;99.90
23435;DHT22;11890;45.380;11.028;2022-11-15T04:11:01;10.00;99.90
23435;DHT22;11890;45.380;11.028;2022-11-15T04:13:47;10.00;99.90
23435;DHT22;11890;45.380;11.028;2022-11-15T04:16:32;10.00;99.90
23435;DHT22;11890;45.380;11.028;2022-11-15T04:19:18;10.00;99.90
23435;DHT22;11890;45.380;11.028;2022-11-15T04:22:23;10.00;99.90
23435;DHT22;11890;45.380;11.028;2022-11-15T04:25:27;9.90;99.90
23435;DHT22;11890;45.380;11.028;2022-11-15T04:28:17;9.90;99.90
23435;DHT22;11890;45.380;11.028;2022-11-15T04:31:03;9.80;99.90
23435;DHT22;11890;45.380;11.028;2022-11-15T04:33:49;9.90;99.90
23435;DHT22;11890;45.380;11.028;2022-11-15T04:36:35;9.80;99.90
23435;DHT22;11890;45.380;11.028;2022-11-15T04:39:43;9.90;99.90
23435;DHT22;11890;45.380;11.028;2022-11-15T04:42:28;9.80;99.90
23435;DHT22;11890;45.380;11.028;2022-11-15T04:45:15;9.90;99.90
23435;DHT22;11890;45.380;11.028;2022-11-15T04:48:00;9.80;99.90
23435;DHT22;11890;45.380;11.028;2022-11-15T04:50:49;9.80;99.90
23435;DHT22;11890;45.380;11.028;2022-11-15T04:53:36;9.70;99.90
23435;DHT22;11890;45.380;11.028;2022-11-15T04:56:22;9.80;99.90
23435;DHT22;11890;45.380;11.028;2022-11-15T04:59:08;9.70;99.90
23435;DHT22;11890;45.380;11.028;2022-11-15T05:01:54;9.80;99.90
23435;DHT22;11890;45.380;11.028;2022-11-15T05:04:40;9.80;99.90
23435;DHT22;11890;45.380;11.028;2022-11-15T05:07:26;9.80;99.90
23435;DHT22;11890;45.380;11.028;2022-11-15T05:10:12;9.80;99.90
23435;DHT22;11890;45.380;11.028;2022-11-15T05:12:58;9.70;99.90
23435;DHT22;11890;45.380;11.028;2022-11-15T05:15:44;9.70;99.90
23435;DHT22;11890;45.380;11.028;2022-11-15T05:18:30;9.60;99.90
23435;DHT22;11890;45.380;11.028;2022-11-15T05:21:16;9.50;99.90
23435;DHT22;11890;45.380;11.028;2022-11-15T05:24:02;9.40;99.90
23435;DHT22;11890;45.380;11.028;2022-11-15T05:26:48;9.50;99.90
23435;DHT22;11890;45.380;11.028;2022-11-15T05:29:34;9.40;99.90
23435;DHT22;11890;45.380;11.028;2022-11-15T05:32:20;9.30;99.90
23435;DHT22;11890;45.380;11.028;2022-11-15T05:35:08;9.20;99.90
23435;DHT22;11890;45.380;11.028;2022-11-15T05:37:57;9.20;99.90
23435;DHT22;11890;45.380;11.028;2022-11-15T05:40:43;9.30;99.90
23435;DHT22;11890;45.380;11.028;2022-11-15T05:43:32;9.40;99.90
23435;DHT22;11890;45.380;11.028;2022-11-15T05:46:19;9.50;99.90
23435;DHT22;11890;45.380;11.028;2022-11-15T05:49:07;9.50;99.90
23435;DHT22;11890;45.380;11.028;2022-11-15T05:51:56;9.40;99.90
23435;DHT22;11890;45.380;11.028;2022-11-15T05:54:43;9.40;99.90
23435;DHT22;11890;45.380;11.028;2022-11-15T05:57:29;9.40;99.90
23435;DHT22;11890;45.380;11.028;2022-11-15T06:00:15;9.40;99.90
23435;DHT22;11890;45.380;11.028;2022-11-15T06:03:01;9.40;99.90
23435;DHT22;11890;45.380;11.028;2022-11-15T06:05:47;9.40;99.90
23435;DHT22;11890;45.380;11.028;2022-11-15T06:08:33;9.40;99.90
23435;DHT22;11890;45.380;11.028;2022-11-15T06:11:19;9.50;99.90
23435;DHT22;11890;45.380;11.028;2022-11-15T06:14:05;9.50;99.90
23435;DHT22;11890;45.380;11.028;2022-11-15T06:16:51;9.50;99.90
23435;DHT22;11890;45.380;11.028;2022-11-15T06:19:37;9.60;99.90
23435;DHT22;11890;45.380;11.028;2022-11-15T06:22:23;9.60;99.90
23435;DHT22;11890;45.380;11.028;2022-11-15T06:25:09;9.60;99.90
23435;DHT22;11890;45.380;11.028;2022-11-15T06:27:56;9.70;99.90
23435;DHT22;11890;45.380;11.028;2022-11-15T06:30:42;9.80;99.90
23435;DHT22;11890;45.380;11.028;2022-11-15T06:33:28;9.80;99.90
23435;DHT22;11890;45.380;11.028;2022-11-15T06:36:14;9.80;99.90
23435;DHT22;11890;45.380;11.028;2022-11-15T06:39:03;9.80;99.90
23435;DHT22;11890;45.380;11.028;2022-11-15T06:41:49;9.80;99.90
23435;DHT22;11890;45.380;11.028;2022-11-15T06:44:35;9.80;99.90
23435;DHT22;11890;45.380;11.028;2022-11-15T06:47:21;9.90;99.90
23435;DHT22;11890;45.380;11.028;2022-11-15T06:50:07;9.90;99.90
23435;DHT22;11890;45.380;11.028;2022-11-15T06:52:54;10.00;99.90
23435;DHT22;11890;45.380;11.028;2022-11-15T06:55:40;9.90;99.90
23435;DHT22;11890;45.380;11.028;2022-11-15T06:58:26;10.00;99.90
23435;DHT22;11890;45.380;11.028;2022-11-15T07:01:12;9.90;99.90
23435;DHT22;11890;45.380;11.028;2022-11-15T07:03:58;9.90;99.90
23435;DHT22;11890;45.380;11.028;2022-11-15T07:06:46;10.00;99.90
23435;DHT22;11890;45.380;11.028;2022-11-15T07:09:33;10.00;99.90
23435;DHT22;11890;45.380;11.028;2022-11-15T07:12:19;10.00;99.90
23435;DHT22;11890;45.380;11.028;2022-11-15T07:15:06;10.00;99.90
23435;DHT22;11890;45.380;11.028;2022-11-15T07:17:53;10.00;99.90
23435;DHT22;11890;45.380;11.028;2022-11-15T07:20:39;10.00;99.90
23435;DHT22;11890;45.380;11.028;2022-11-15T07:23:25;10.10;99.90
23435;DHT22;11890;45.380;11.028;2022-11-15T07:26:11;10.10;99.90
23435;DHT22;11890;45.380;11.028;2022-11-15T07:28:57;10.10;99.90
23435;DHT22;11890;45.380;11.028;2022-11-15T07:31:43;10.10;99.90
23435;DHT22;11890;45.380;11.028;2022-11-15T07:34:29;10.10;99.90
23435;DHT22;11890;45.380;11.028;2022-11-15T07:37:15;10.10;99.90
23435;DHT22;11890;45.380;11.028;2022-11-15T07:40:02;10.20;99.90
23435;DHT22;11890;45.380;11.028;2022-11-15T07:42:48;10.10;99.90
23435;DHT22;11890;45.380;11.028;2022-11-15T07:45:45;10.10;99.90
23435;DHT22;11890;45.380;11.028;2022-11-15T07:48:31;10.10;99.90
23435;DHT22;11890;45.380;11.028;2022-11-15T07:51:29;10.10;99.90
23435;DHT22;11890;45.380;11.028;2022-11-15T07:54:15;10.10;99.90
23435;DHT22;11890;45.380;11.028;2022-11-15T07:57:01;10.10;99.90
23435;DHT22;11890;45.380;11.028;2022-11-15T07:59:52;10.20;99.90
23435;DHT22;11890;45.380;11.028;2022-11-15T08:02:37;10.30;99.90
23435;DHT22;11890;45.380;11.028;2022-11-15T08:05:24;10.30;99.90
23435;DHT22;11890;45.380;11.028;2022-11-15T08:08:11;10.30;99.90
23435;DHT22;11890;45.380;11.028;2022-11-15T08:10:58;10.30;99.90
23435;DHT22;11890;45.380;11.028;2022-11-15T08:13:44;10.30;99.90
23435;DHT22;11890;45.380;11.028;2022-11-15T08:16:30;10.30;99.90
23435;DHT22;11890;45.380;11.028;2022-11-15T08:19:16;10.30;99.90
23435;DHT22;11890;45.380;11.028;2022-11-15T08:22:02;10.30;99.90
23435;DHT22;11890;45.380;11.028;2022-11-15T08:24:48;10.40;99.90
23435;DHT22;11890;45.380;11.028;2022-11-15T08:27:34;10.50;99.90
23435;DHT22;11890;45.380;11.028;2022-11-15T08:30:20;10.50;99.90
23435;DHT22;11890;45.380;11.028;2022-11-15T08:33:10;10.50;99.90
23435;DHT22;11890;45.380;11.028;2022-11-15T08:35:58;10.50;99.90
23435;DHT22;11890;45.380;11.028;2022-11-15T08:38:45;10.50;99.90
23435;DHT22;11890;45.380;11.028;2022-11-15T08:41:35;10.50;99.90
23435;DHT22;11890;45.380;11.028;2022-11-15T08:44:22;10.50;99.90
23435;DHT22;11890;45.380;11.028;2022-11-15T08:47:11;10.50;99.90
23435;DHT22;11890;45.380;11.028;2022-11-15T08:49:58;10.50;99.90
23435;DHT22;11890;45.380;11.028;2022-11-15T08:52:43;10.50;99.90
23435;DHT22;11890;45.380;11.028;2022-11-15T08:55:29;10.60;99.90
23435;DHT22;11890;45.380;11.028;2022-11-15T08:58:15;10.70;99.90
23435;DHT22;11890;45.380;11.028;2022-11-15T09:01:02;10.70;99.90
23435;DHT22;11890;45.380;11.028;2022-11-15T09:03:48;10.80;99.90
23435;DHT22;11890;45.380;11.028;2022-11-15T09:06:35;10.80;99.90
23435;DHT22;11890;45.380;11.028;2022-11-15T09:09:27;10.90;99.90
23435;DHT22;11890;45.380;11.028;2022-11-15T09:12:13;11.00;99.90
23435;DHT22;11890;45.380;11.028;2022-11-15T09:14:59;10.90;99.90
23435;DHT22;11890;45.380;11.028;2022-11-15T09:17:45;10.90;99.90
23435;DHT22;11890;45.380;11.028;2022-11-15T09:20:30;10.90;99.90
23435;DHT22;11890;45.380;11.028;2022-11-15T09:23:17;11.00;99.90
23435;DHT22;11890;45.380;11.028;2022-11-15T09:26:04;11.00;99.90
23435;DHT22;11890;45.380;11.028;2022-11-15T09:28:50;11.00;99.90
23435;DHT22;11890;45.380;11.028;2022-11-15T09:31:36;11.00;99.90
23435;DHT22;11890;45.380;11.028;2022-11-15T09:34:22;11.10;99.90
23435;DHT22;11890;45.380;11.028;2022-11-15T09:37:08;11.10;99.90
23435;DHT22;11890;45.380;11.028;2022-11-15T09:39:54;11.20;99.90
23435;DHT22;11890;45.380;11.028;2022-11-15T09:43:08;11.20;99.90
23435;DHT22;11890;45.380;11.028;2022-11-15T09:48:57;11.30;99.90
23435;DHT22;11890;45.380;11.028;2022-11-15T09:51:47;11.30;99.90
23435;DHT22;11890;45.380;11.028;2022-11-15T10:05:47;11.40;99.90
23435;DHT22;11890;45.380;11.028;2022-11-15T10:11:07;11.40;99.90
23435;DHT22;11890;45.380;11.028;2022-11-15T10:13:59;11.40;99.90
23435;DHT22;11890;45.380;11.028;2022-11-15T10:22:31;11.50;99.90
23435;DHT22;11890;45.380;11.028;2022-11-15T10:25:26;11.50;99.90
23435;DHT22;11890;45.380;11.028;2022-11-15T10:28:06;11.50;99.90
23435;DHT22;11890;45.380;11.028;2022-11-15T10:30:43;11.50;99.90
23435;DHT22;11890;45.380;11.028;2022-11-15T10:33:20;11.60;99.90
23435;DHT22;11890;45.380;11.028;2022-11-15T10:44:16;11.60;99.90
23435;DHT22;11890;45.380;11.028;2022-11-15T10:47:20;11.60;99.90
23435;DHT22;11890;45.380;11.028;2022-11-15T10:49:34;11.50;99.90
23435;DHT22;11890;45.380;11.028;2022-11-15T10:52:16;11.50;99.90
23435;DHT22;11890;45.380;11.028;2022-11-15T10:57:36;11.60;99.90
23435;DHT22;11890;45.380;11.028;2022-11-15T11:00:25;11.60;99.90
23435;DHT22;11890;45.380;11.028;2022-11-15T11:05:35;11.70;99.90
23435;DHT22;11890;45.380;11.028;2022-11-15T11:10:39;11.70;99.90
23435;DHT22;11890;45.380;11.028;2022-11-15T11:13:38;11.80;99.90
23435;DHT22;11890;45.380;11.028;2022-11-15T11:16:19;11.90;99.90
23435;DHT22;11890;45.380;11.028;2022-11-15T11:24:34;11.90;99.90
23435;DHT22;11890;45.380;11.028;2022-11-15T11:27:13;11.90;99.90
23435;DHT22;11890;45.380;11.028;2022-11-15T11:33:00;11.90;99.90
23435;DHT22;11890;45.380;11.028;2022-11-15T11:38:50;11.90;99.90
23435;DHT22;11890;45.380;11.028;2022-11-15T11:44:21;11.90;99.90
23435;DHT22;11890;45.380;11.028;2022-11-15T11:52:32;12.00;99.90
23435;DHT22;11890;45.380;11.028;2022-11-15T11:55:16;12.00;99.90
23435;DHT22;11890;45.380;11.028;2022-11-15T12:00:41;12.00;99.90
23435;DHT22;11890;45.380;11.028;2022-11-15T12:05:50;12.00;99.90
23435;DHT22;11890;45.380;11.028;2022-11-15T12:08:41;12.10;99.90
23435;DHT22;11890;45.380;11.028;2022-11-15T12:11:21;12.10;99.90
23435;DHT22;11890;45.380;11.028;2022-11-15T12:13:56;12.10;99.90
23435;DHT22;11890;45.380;11.028;2022-11-15T12:16:30;12.10;99.90
23435;DHT22;11890;45.380;11.028;2022-11-15T12:19:03;12.10;99.90
23435;DHT22;11890;45.380;11.028;2022-11-15T12:27:42;12.20;99.90
23435;DHT22;11890;45.380;11.028;2022-11-15T12:29:46;12.20;99.90
23435;DHT22;11890;45.380;11.028;2022-11-15T12:32:34;12.20;99.90
23435;DHT22;11890;45.380;11.028;2022-11-15T12:35:21;12.20;99.90
23435;DHT22;11890;45.380;11.028;2022-11-15T12:37:52;12.20;99.90
23435;DHT22;11890;45.380;11.028;2022-11-15T12:45:34;12.20;99.90
23435;DHT22;11890;45.380;11.028;2022-11-15T12:59:01;12.20;99.90
23435;DHT22;11890;45.380;11.028;2022-11-15T13:14:56;12.30;99.90
23435;DHT22;11890;45.380;11.028;2022-11-15T13:17:30;12.30;99.90
23435;DHT22;11890;45.380;11.028;2022-11-15T13:22:41;12.20;99.90
23435;DHT22;11890;45.380;11.028;2022-11-15T13:28:01;12.30;99.90
23435;DHT22;11890;45.380;11.028;2022-11-15T13:30:34;12.30;99.90
23435;DHT22;11890;45.380;11.028;2022-11-15T13:33:09;12.30;99.90
23435;DHT22;11890;45.380;11.028;2022-11-15T13:35:39;12.30;99.90
23435;DHT22;11890;45.380;11.028;2022-11-15T13:38:27;12.40;99.90
23435;DHT22;11890;45.380;11.028;2022-11-15T13:40:56;12.30;99.90
23435;DHT22;11890;45.380;11.028;2022-11-15T13:43:34;12.40;99.90
23435;DHT22;11890;45.380;11.028;2022-11-15T13:46:10;12.40;99.90
23435;DHT22;11890;45.380;11.028;2022-11-15T13:48:40;12.40;99.90
23435;DHT22;11890;45.380;11.028;2022-11-15T13:56:52;12.50;99.90
23435;DHT22;11890;45.380;11.028;2022-11-15T13:59:27;12.50;99.90
23435;DHT22;11890;45.380;11.028;2022-11-15T14:01:57;12.50;99.90
23435;DHT22;11890;45.380;11.028;2022-11-15T14:04:27;12.50;99.90
23435;DHT22;11890;45.380;11.028;2022-11-15T14:06:58;12.50;99.90
23435;DHT22;11890;45.380;11.028;2022-11-15T14:09:36;12.60;99.90
23435;DHT22;11890;45.380;11.028;2022-11-15T14:12:39;12.60;99.90
23435;DHT22;11890;45.380;11.028;2022-11-15T14:15:35;12.60;99.90
23435;DHT22;11890;45.380;11.028;2022-11-15T14:18:04;12.60;99.90
23435;DHT22;11890;45.380;11.028;2022-11-15T14:20:38;12.60;99.90
23435;DHT22;11890;45.380;11.028;2022-11-15T14:23:23;12.60;99.90
23435;DHT22;11890;45.380;11.028;2022-11-15T14:25:58;12.50;99.90
23435;DHT22;11890;45.380;11.028;2022-11-15T14:30:56;12.50;99.90
23435;DHT22;11890;45.380;11.028;2022-11-15T14:33:34;12.50;99.90
23435;DHT22;11890;45.380;11.028;2022-11-15T14:36:14;12.50;99.90
23435;DHT22;11890;45.380;11.028;2022-11-15T14:38:41;12.50;99.90
23435;DHT22;11890;45.380;11.028;2022-11-15T14:41:21;12.50;99.90
23435;DHT22;11890;45.380;11.028;2022-11-15T14:43:50;12.50;99.90
23435;DHT22;11890;45.380;11.028;2022-11-15T14:46:17;12.50;99.90
23435;DHT22;11890;45.380;11.028;2022-11-15T14:48:45;12.50;99.90
23435;DHT22;11890;45.380;11.028;2022-11-15T14:51:15;12.50;99.90
23435;DHT22;11890;45.380;11.028;2022-11-15T14:53:44;12.50;99.90
23435;DHT22;11890;45.380;11.028;2022-11-15T14:56:12;12.50;99.90
23435;DHT22;11890;45.380;11.028;2022-11-15T14:58:40;12.50;99.90
23435;DHT22;11890;45.380;11.028;2022-11-15T15:01:20;12.50;99.90
23435;DHT22;11890;45.380;11.028;2022-11-15T15:03:48;12.50;99.90
23435;DHT22;11890;45.380;11.028;2022-11-15T15:06:15;12.50;99.90
23435;DHT22;11890;45.380;11.028;2022-11-15T15:08:46;12.60;99.90
23435;DHT22;11890;45.380;11.028;2022-11-15T15:11:26;12.50;99.90
23435;DHT22;11890;45.380;11.028;2022-11-15T15:13:54;12.50;99.90
23435;DHT22;11890;45.380;11.028;2022-11-15T15:16:24;12.50;99.90
23435;DHT22;11890;45.380;11.028;2022-11-15T15:18:52;12.50;99.90
23435;DHT22;11890;45.380;11.028;2022-11-15T15:21:24;12.50;99.90
23435;DHT22;11890;45.380;11.028;2022-11-15T15:23:52;12.60;99.90
23435;DHT22;11890;45.380;11.028;2022-11-15T15:26:23;12.50;99.90
23435;DHT22;11890;45.380;11.028;2022-11-15T15:28:51;12.50;99.90
23435;DHT22;11890;45.380;11.028;2022-11-15T15:31:18;12.50;99.90
23435;DHT22;11890;45.380;11.028;2022-11-15T15:33:46;12.40;99.90
23435;DHT22;11890;45.380;11.028;2022-11-15T15:36:19;12.40;99.90
23435;DHT22;11890;45.380;11.028;2022-11-15T15:38:46;12.40;99.90
23435;DHT22;11890;45.380;11.028;2022-11-15T15:41:15;12.40;99.90
23435;DHT22;11890;45.380;11.028;2022-11-15T15:43:42;12.40;99.90
23435;DHT22;11890;45.380;11.028;2022-11-15T15:46:12;12.40;99.90
23435;DHT22;11890;45.380;11.028;2022-11-15T15:48:41;12.40;99.90
23435;DHT22;11890;45.380;11.028;2022-11-15T15:51:08;12.40;99.90
23435;DHT22;11890;45.380;11.028;2022-11-15T15:53:47;12.40;99.90
23435;DHT22;11890;45.380;11.028;2022-11-15T15:56:14;12.40;99.90
23435;DHT22;11890;45.380;11.028;2022-11-15T15:58:41;12.40;99.90
23435;DHT22;11890;45.380;11.028;2022-11-15T16:01:09;12.40;99.90
23435;DHT22;11890;45.380;11.028;2022-11-15T16:03:36;12.30;99.90
23435;DHT22;11890;45.380;11.028;2022-11-15T16:06:04;12.40;99.90
23435;DHT22;11890;45.380;11.028;2022-11-15T16:08:32;12.40;99.90
23435;DHT22;11890;45.380;11.028;2022-11-15T16:11:19;12.30;99.90
23435;DHT22;11890;45.380;11.028;2022-11-15T16:13:46;12.40;99.90
23435;DHT22;11890;45.380;11.028;2022-11-15T16:16:14;12.30;99.90
23435;DHT22;11890;45.380;11.028;2022-11-15T16:18:41;12.40;99.90
23435;DHT22;11890;45.380;11.028;2022-11-15T16:21:09;12.40;99.90
23435;DHT22;11890;45.380;11.028;2022-11-15T16:23:36;12.40;99.90
23435;DHT22;11890;45.380;11.028;2022-11-15T16:26:20;12.40;99.90
23435;DHT22;11890;45.380;11.028;2022-11-15T16:28:48;12.40;99.90
23435;DHT22;11890;45.380;11.028;2022-11-15T16:31:15;12.40;99.90
23435;DHT22;11890;45.380;11.028;2022-11-15T16:33:45;12.40;99.90
23435;DHT22;11890;45.380;11.028;2022-11-15T16:36:24;12.40;99.90
23435;DHT22;11890;45.380;11.028;2022-11-15T16:38:57;12.40;99.90
23435;DHT22;11890;45.380;11.028;2022-11-15T16:41:25;12.40;99.90
23435;DHT22;11890;45.380;11.028;2022-11-15T16:43:52;12.40;99.90
23435;DHT22;11890;45.380;11.028;2022-11-15T16:46:22;12.30;99.90
23435;DHT22;11890;45.380;11.028;2022-11-15T16:48:51;12.40;99.90
23435;DHT22;11890;45.380;11.028;2022-11-15T16:51:18;12.40;99.90
23435;DHT22;11890;45.380;11.028;2022-11-15T16:53:46;12.30;99.90
23435;DHT22;11890;45.380;11.028;2022-11-15T16:56:29;12.30;99.90
23435;DHT22;11890;45.380;11.028;2022-11-15T16:58:58;12.30;99.90
23435;DHT22;11890;45.380;11.028;2022-11-15T17:01:30;12.30;99.90
23435;DHT22;11890;45.380;11.028;2022-11-15T17:03:58;12.30;99.90
23435;DHT22;11890;45.380;11.028;2022-11-15T17:06:26;12.30;99.90
23435;DHT22;11890;45.380;11.028;2022-11-15T17:08:53;12.30;99.90
23435;DHT22;11890;45.380;11.028;2022-11-15T17:11:21;12.30;99.90
23435;DHT22;11890;45.380;11.028;2022-11-15T17:13:49;12.30;99.90
23435;DHT22;11890;45.380;11.028;2022-11-15T17:16:18;12.30;99.90
23435;DHT22;11890;45.380;11.028;2022-11-15T17:18:49;12.30;99.90
23435;DHT22;11890;45.380;11.028;2022-11-15T17:21:19;12.30;99.90
23435;DHT22;11890;45.380;11.028;2022-11-15T17:23:47;12.30;99.90
23435;DHT22;11890;45.380;11.028;2022-11-15T17:26:15;12.40;99.90
23435;DHT22;11890;45.380;11.028;2022-11-15T17:28:57;12.40;99.90
23435;DHT22;11890;45.380;11.028;2022-11-15T17:31:27;12.30;99.90
23435;DHT22;11890;45.380;11.028;2022-11-15T17:33:56;12.30;99.90
23435;DHT22;11890;45.380;11.028;2022-11-15T17:36:24;12.30;99.90
23435;DHT22;11890;45.380;11.028;2022-11-15T17:38:51;12.30;99.90
23435;DHT22;11890;45.380;11.028;2022-11-15T17:41:26;12.30;99.90
23435;DHT22;11890;45.380;11.028;2022-11-15T17:43:58;12.30;99.90
23435;DHT22;11890;45.380;11.028;2022-11-15T17:46:27;12.30;99.90
23435;DHT22;11890;45.380;11.028;2022-11-15T17:48:55;12.30;99.90
23435;DHT22;11890;45.380;11.028;2022-11-15T17:51:24;12.30;99.90
23435;DHT22;11890;45.380;11.028;2022-11-15T17:53:51;12.30;99.90
23435;DHT22;11890;45.380;11.028;2022-11-15T17:56:23;12.30;99.90
23435;DHT22;11890;45.380;11.028;2022-11-15T17:58:56;12.30;99.90
23435;DHT22;11890;45.380;11.028;2022-11-15T18:01:30;12.30;99.90
23435;DHT22;11890;45.380;11.028;2022-11-15T18:03:59;12.30;99.90
23435;DHT22;11890;45.380;11.028;2022-11-15T18:06:30;12.30;99.90
23435;DHT22;11890;45.380;11.028;2022-11-15T18:08:58;12.30;99.90
23435;DHT22;11890;45.380;11.028;2022-11-15T18:13:57;12.30;99.90
23435;DHT22;11890;45.380;11.028;2022-11-15T18:16:27;12.30;99.90
23435;DHT22;11890;45.380;11.028;2022-11-15T18:18:54;12.40;99.90
23435;DHT22;11890;45.380;11.028;2022-11-15T18:21:29;12.30;99.90
23435;DHT22;11890;45.380;11.028;2022-11-15T18:23:59;12.40;99.90
23435;DHT22;11890;45.380;11.028;2022-11-15T18:26:28;12.30;99.90
23435;DHT22;11890;45.380;11.028;2022-11-15T18:29:03;12.30;99.90
23435;DHT22;11890;45.380;11.028;2022-11-15T18:31:31;12.30;99.90
23435;DHT22;11890;45.380;11.028;2022-11-15T18:33:59;12.30;99.90
23435;DHT22;11890;45.380;11.028;2022-11-15T18:36:28;12.30;99.90
23435;DHT22;11890;45.380;11.028;2022-11-15T18:39:02;12.20;99.90
23435;DHT22;11890;45.380;11.028;2022-11-15T18:41:32;12.20;99.90
23435;DHT22;11890;45.380;11.028;2022-11-15T18:44:01;12.30;99.90
23435;DHT22;11890;45.380;11.028;2022-11-15T18:46:30;12.30;99.90
23435;DHT22;11890;45.380;11.028;2022-11-15T18:49:00;12.20;99.90
23435;DHT22;11890;45.380;11.028;2022-11-15T18:51:30;12.20;99.90
23435;DHT22;11890;45.380;11.028;2022-11-15T18:54:05;12.30;99.90
23435;DHT22;11890;45.380;11.028;2022-11-15T18:56:33;12.20;99.90
23435;DHT22;11890;45.380;11.028;2022-11-15T18:59:01;12.30;99.90
23435;DHT22;11890;45.380;11.028;2022-11-15T19:01:40;12.30;99.90
23435;DHT22;11890;45.380;11.028;2022-11-15T19:04:12;12.30;99.90
23435;DHT22;11890;45.380;11.028;2022-11-15T19:06:43;12.30;99.90
23435;DHT22;11890;45.380;11.028;2022-11-15T19:09:15;12.30;99.90
23435;DHT22;11890;45.380;11.028;2022-11-15T19:11:44;12.40;99.90
23435;DHT22;11890;45.380;11.028;2022-11-15T19:14:13;12.30;99.90
23435;DHT22;11890;45.380;11.028;2022-11-15T19:16:43;12.40;99.90
23435;DHT22;11890;45.380;11.028;2022-11-15T19:19:14;12.40;99.90